createdAt,value
2018-08-06T04:19:06.659Z,14.60
2018-08-06T04:21:35.176Z,15.40
2018-08-06T04:24:03.900Z,15.40
2018-08-06T04:26:32.392Z,15.40
2018-08-06T04:29:00.945Z,15.40
2018-08-06T04:31:29.447Z,15.40
2018-08-06T04:33:58.831Z,15.50
2018-08-06T04:36:27.451Z,15.50
2018-08-06T04:38:55.972Z,15.50
2018-08-06T04:41:24.600Z,15.50
2018-08-06T04:43:53.129Z,15.50
2018-08-06T04:46:21.745Z,15.60
2018-08-06T04:48:50.776Z,15.60
2018-08-06T04:51:19.674Z,15.60
2018-08-06T04:53:48.365Z,15.70
2018-08-06T04:56:16.923Z,15.70
2018-08-06T04:58:45.598Z,15.80
2018-08-06T05:01:14.185Z,15.80
2018-08-06T05:03:42.755Z,15.90
2018-08-06T05:06:11.238Z,16.00
2018-08-06T05:08:39.798Z,16.10
2018-08-06T05:11:08.301Z,16.20
2018-08-06T05:13:36.884Z,16.20
2018-08-06T05:16:05.546Z,16.30
2018-08-06T05:18:34.061Z,16.40
2018-08-06T05:21:02.635Z,16.50
2018-08-06T05:23:56.773Z,16.70
2018-08-06T05:26:26.165Z,16.80
2018-08-06T05:28:54.770Z,16.90
2018-08-06T05:31:24.683Z,17.00
2018-08-06T05:33:54.352Z,17.10
2018-08-06T05:36:23.332Z,17.30
2018-08-06T05:38:53.382Z,17.50
2018-08-06T05:41:22.912Z,17.60
2018-08-06T05:43:52.393Z,17.70
2018-08-06T05:46:20.884Z,17.80
2018-08-06T05:48:49.408Z,18.00
2018-08-06T05:51:18.051Z,18.00
2018-08-06T05:53:46.677Z,18.10
2018-08-06T05:56:15.181Z,18.20
2018-08-06T05:58:43.680Z,18.30
2018-08-06T06:01:12.171Z,18.40
2018-08-06T06:03:40.754Z,18.40
2018-08-06T06:06:09.634Z,18.50
2018-08-06T06:08:39.281Z,18.60
2018-08-06T06:11:08.602Z,18.70
2018-08-06T06:13:37.155Z,18.80
2018-08-06T06:16:06.654Z,19.00
2018-08-06T06:18:35.267Z,19.10
2018-08-06T06:21:03.823Z,19.10
2018-08-06T06:23:32.506Z,19.20
2018-08-06T06:26:01.032Z,19.30
2018-08-06T06:28:29.590Z,19.50
2018-08-06T06:30:58.059Z,19.60
2018-08-06T06:33:26.654Z,19.70
2018-08-06T06:35:55.182Z,19.80
2018-08-06T06:38:23.718Z,19.90
2018-08-06T06:40:52.225Z,20.00
2018-08-06T06:43:20.729Z,20.10
2018-08-06T06:45:49.323Z,20.20
2018-08-06T06:48:17.848Z,20.20
2018-08-06T06:50:46.366Z,20.30
2018-08-06T06:55:43.368Z,20.50
2018-08-06T06:58:12.192Z,20.60
2018-08-06T07:00:40.677Z,20.60
2018-08-06T07:03:09.178Z,20.70
2018-08-06T07:05:37.691Z,20.80
2018-08-06T07:08:06.190Z,20.80
2018-08-06T07:10:34.698Z,20.90
2018-08-06T07:13:03.317Z,21.00
2018-08-06T07:15:31.854Z,21.10
2018-08-06T07:18:00.410Z,21.20
2018-08-06T07:20:29.589Z,21.20
2018-08-06T07:22:58.184Z,21.30
2018-08-06T07:25:26.707Z,21.40
2018-08-06T07:27:55.190Z,21.50
2018-08-06T07:30:23.671Z,21.60
2018-08-06T07:32:52.219Z,21.60
2018-08-06T07:35:20.778Z,21.70
2018-08-06T07:37:49.357Z,21.80
2018-08-06T07:40:17.930Z,21.90
2018-08-06T07:42:46.510Z,22.00
2018-08-06T07:45:18.154Z,22.00
2018-08-06T07:47:47.472Z,22.10
2018-08-06T07:50:17.391Z,22.20
2018-08-06T07:52:46.013Z,22.30
2018-08-06T07:55:14.526Z,22.40
2018-08-06T07:57:43.039Z,22.50
2018-08-06T08:00:14.277Z,22.50
2018-08-06T08:02:43.110Z,22.60
2018-08-06T08:05:13.568Z,22.70
2018-08-06T08:10:14.293Z,22.90
2018-08-06T08:12:43.151Z,23.00
2018-08-06T08:15:14.441Z,23.10
2018-08-06T08:17:43.729Z,23.10
2018-08-06T08:20:13.953Z,23.20
2018-08-06T08:22:42.800Z,23.30
2018-08-06T08:25:13.358Z,23.40
2018-08-06T08:27:41.838Z,23.60
2018-08-06T08:30:12.066Z,23.70
2018-08-06T08:32:40.633Z,23.80
2018-08-06T08:35:10.504Z,23.80
2018-08-06T08:37:39.230Z,23.90
2018-08-06T08:40:09.905Z,24.00
2018-08-06T08:42:38.829Z,24.00
2018-08-06T08:45:09.975Z,24.10
2018-08-06T08:47:38.830Z,24.20
2018-08-06T08:50:09.497Z,24.30
2018-08-06T08:52:38.185Z,24.40
2018-08-06T08:55:06.699Z,24.50
2018-08-06T08:57:35.527Z,24.50
2018-08-06T09:00:06.229Z,24.60
2018-08-06T09:02:34.794Z,24.70
2018-08-06T09:05:03.319Z,24.70
2018-08-06T09:07:31.810Z,24.80
2018-08-06T09:10:00.318Z,24.90
2018-08-06T09:12:28.826Z,24.90
2018-08-06T09:14:57.327Z,24.90
2018-08-06T09:19:54.036Z,25.10
2018-08-06T09:22:22.511Z,25.30
2018-08-06T09:24:51.031Z,25.40
2018-08-06T09:27:19.534Z,25.50
2018-08-06T09:29:48.119Z,25.70
2018-08-06T09:32:16.730Z,25.70
2018-08-06T09:34:45.230Z,25.80
2018-08-06T09:37:13.739Z,25.80
2018-08-06T09:39:42.243Z,25.80
2018-08-06T09:42:10.762Z,25.90
2018-08-06T09:44:39.844Z,25.90
2018-08-06T09:47:08.391Z,26.00
2018-08-06T09:49:36.912Z,26.00
2018-08-06T09:52:06.365Z,26.10
2018-08-06T09:54:34.901Z,26.10
2018-08-06T09:57:03.426Z,26.20
2018-08-06T09:59:31.915Z,26.30
2018-08-06T10:02:00.464Z,26.40
2018-08-06T10:04:29.014Z,26.40
2018-08-06T10:06:57.840Z,26.50
2018-08-06T10:09:26.332Z,26.50
2018-08-06T10:11:54.841Z,26.50
2018-08-06T10:14:23.420Z,26.60
2018-08-06T10:16:52.101Z,26.70
2018-08-06T10:19:20.702Z,26.80
2018-08-06T10:21:49.150Z,26.80
2018-08-06T10:24:17.734Z,26.90
2018-08-06T10:26:46.261Z,26.90
2018-08-06T10:29:14.766Z,27.00
2018-08-06T10:31:43.248Z,27.10
2018-08-06T10:34:11.825Z,27.10
2018-08-06T10:36:40.335Z,27.10
2018-08-06T10:39:10.766Z,27.10
2018-08-06T10:41:39.353Z,27.10
2018-08-06T10:44:07.884Z,27.20
2018-08-06T10:46:36.386Z,27.20
2018-08-06T10:49:04.979Z,27.30
2018-08-06T10:51:33.712Z,27.30
2018-08-06T10:54:03.144Z,27.30
2018-08-06T10:56:31.685Z,27.40
2018-08-06T10:59:00.198Z,27.40
2018-08-06T11:01:28.756Z,27.50
2018-08-06T11:03:57.444Z,27.60
2018-08-06T11:06:25.997Z,27.60
2018-08-06T11:08:54.608Z,27.80
2018-08-06T11:11:23.129Z,27.90
2018-08-06T11:13:51.944Z,28.10
2018-08-06T11:16:20.540Z,28.20
2018-08-06T11:18:49.077Z,28.20
2018-08-06T11:21:17.591Z,28.30
2018-08-06T11:23:46.106Z,28.30
2018-08-06T11:26:14.686Z,28.30
2018-08-06T11:28:43.391Z,28.30
2018-08-06T11:31:11.905Z,28.40
2018-08-06T11:33:40.494Z,28.40
2018-08-06T11:36:09.008Z,28.50
2018-08-06T11:38:37.961Z,28.60
2018-08-06T11:41:06.456Z,28.70
2018-08-06T11:43:34.969Z,28.80
2018-08-06T11:46:03.631Z,28.80
2018-08-06T11:48:32.151Z,28.90
2018-08-06T11:51:00.791Z,29.00
2018-08-06T11:53:29.411Z,29.10
2018-08-06T11:55:57.909Z,29.20
2018-08-06T11:58:26.446Z,29.30
2018-08-06T12:00:55.073Z,29.40
2018-08-06T12:03:23.644Z,29.40
2018-08-06T12:05:52.172Z,29.50
2018-08-06T12:08:20.696Z,29.60
2018-08-06T12:10:49.199Z,29.70
2018-08-06T12:13:17.777Z,29.80
2018-08-06T12:15:46.282Z,29.80
2018-08-06T12:18:14.790Z,29.80
2018-08-06T12:20:43.311Z,29.70
2018-08-06T12:23:11.893Z,29.80
2018-08-06T12:25:40.357Z,29.80
2018-08-06T12:28:08.834Z,29.90
2018-08-06T12:30:37.366Z,30.00
2018-08-06T12:33:06.050Z,30.10
2018-08-06T12:35:34.602Z,30.20
2018-08-06T12:38:03.161Z,30.30
2018-08-06T12:40:31.621Z,30.40
2018-08-06T12:43:00.234Z,30.40
2018-08-06T12:45:29.354Z,30.40
2018-08-06T12:47:57.865Z,30.40
2018-08-06T12:50:26.357Z,30.50
2018-08-06T12:52:54.939Z,30.50
2018-08-06T12:55:23.426Z,30.60
2018-08-06T12:57:51.937Z,30.60
2018-08-06T13:00:23.956Z,30.70
2018-08-06T13:02:52.963Z,30.80
2018-08-06T13:05:22.063Z,30.90
2018-08-06T13:10:19.060Z,31.00
2018-08-06T13:12:47.647Z,31.10
2018-08-06T13:15:16.821Z,31.10
2018-08-06T13:17:45.928Z,31.20
2018-08-06T13:20:14.433Z,31.30
2018-08-06T13:22:43.028Z,31.30
2018-08-06T13:25:12.519Z,31.40
2018-08-06T13:27:41.001Z,31.50
2018-08-06T13:30:14.429Z,31.70
2018-08-06T13:32:43.654Z,31.80
2018-08-06T13:35:13.126Z,31.90
2018-08-06T13:37:41.645Z,32.00
2018-08-06T13:40:13.839Z,32.30
2018-08-06T13:42:45.483Z,32.80
2018-08-06T13:45:19.681Z,33.60
2018-08-06T13:47:52.202Z,36.60
2018-08-06T13:50:23.433Z,41.50
2018-08-06T13:52:54.880Z,45.70
2018-08-06T13:55:24.765Z,49.60
2018-08-06T13:57:56.071Z,53.10
2018-08-06T14:00:27.514Z,55.70
2018-08-06T14:02:58.950Z,58.20
2018-08-06T14:05:30.169Z,60.00
2018-08-06T14:08:01.444Z,61.50
2018-08-06T14:10:32.621Z,62.60
2018-08-06T14:15:34.606Z,66.40
2018-08-06T14:18:05.927Z,67.50
2018-08-06T14:20:34.497Z,68.30
2018-08-06T14:23:03.031Z,69.40
2018-08-06T14:25:31.529Z,70.20
2018-08-06T14:28:00.063Z,71.10
2018-08-06T14:30:28.575Z,71.80
2018-08-06T14:32:57.197Z,72.50
2018-08-06T14:35:25.673Z,73.00
2018-08-06T14:37:54.277Z,73.60
2018-08-06T14:40:22.747Z,73.70
2018-08-06T14:42:51.358Z,73.80
2018-08-06T14:45:19.830Z,73.00
2018-08-06T14:47:48.349Z,72.50
2018-08-06T14:50:16.843Z,71.50
2018-08-06T14:52:45.426Z,70.20
2018-08-06T14:55:14.605Z,70.40
2018-08-06T14:57:43.135Z,70.70
2018-08-06T15:00:16.187Z,70.90
2018-08-06T15:02:44.935Z,70.40
2018-08-06T15:05:13.465Z,70.50
2018-08-06T15:07:41.946Z,70.70
2018-08-06T15:10:11.817Z,70.70
2018-08-06T15:12:40.732Z,71.00
2018-08-06T15:15:11.891Z,71.20
2018-08-06T15:17:40.399Z,71.40
2018-08-06T15:20:11.358Z,71.50
2018-08-06T15:22:40.155Z,71.40
2018-08-06T15:25:11.481Z,71.50
2018-08-06T15:27:40.483Z,71.40
2018-08-06T15:30:09.351Z,71.20
2018-08-06T15:32:38.057Z,71.20
2018-08-06T15:35:07.224Z,71.20
2018-08-06T15:37:35.810Z,70.70
2018-08-06T15:40:05.114Z,69.00
2018-08-06T15:42:33.656Z,68.00
2018-08-06T15:45:02.159Z,67.40
2018-08-06T15:47:30.654Z,67.70
2018-08-06T15:49:59.267Z,68.00
2018-08-06T15:52:27.738Z,68.00
2018-08-06T15:54:56.229Z,67.50
2018-08-06T15:57:24.814Z,67.50
2018-08-06T15:59:53.317Z,67.30
2018-08-06T16:02:21.798Z,66.50
2018-08-06T16:04:50.339Z,65.40
2018-08-06T16:07:18.807Z,65.10
2018-08-06T16:09:47.270Z,64.10
2018-08-06T16:12:15.793Z,62.90
2018-08-06T16:14:44.293Z,62.90
2018-08-06T16:17:12.785Z,61.80
2018-08-06T16:19:41.258Z,60.20
2018-08-06T16:22:09.806Z,60.00
2018-08-06T16:24:38.345Z,60.80
2018-08-06T16:27:06.861Z,61.80
2018-08-06T16:29:35.390Z,62.50
2018-08-06T16:32:03.863Z,63.30
2018-08-06T16:34:32.436Z,63.80
2018-08-06T16:37:00.898Z,64.30
2018-08-06T16:39:29.367Z,64.50
2018-08-06T16:41:57.882Z,64.40
2018-08-06T16:44:26.504Z,64.30
2018-08-06T16:46:54.977Z,64.20
2018-08-06T16:49:23.488Z,63.20
2018-08-06T16:51:52.033Z,62.40
2018-08-06T16:54:20.726Z,61.80
2018-08-06T16:56:49.257Z,60.80
2018-08-06T16:59:17.762Z,59.70
2018-08-06T17:01:46.293Z,58.40
2018-08-06T17:04:14.842Z,57.60
2018-08-06T17:06:43.404Z,56.70
2018-08-06T17:09:11.926Z,55.50
2018-08-06T17:11:40.474Z,52.90
2018-08-06T17:14:09.077Z,50.50
2018-08-06T17:16:37.655Z,48.30
2018-08-06T17:19:06.154Z,46.20
2018-08-06T17:21:34.661Z,44.60
2018-08-06T17:24:03.231Z,43.10
2018-08-06T17:26:31.726Z,41.80
2018-08-06T17:29:00.258Z,40.60
2018-08-06T17:31:28.818Z,39.60
2018-08-06T17:33:57.414Z,38.20
2018-08-06T17:36:25.937Z,37.80
2018-08-06T17:38:54.963Z,37.20
2018-08-06T17:41:23.519Z,36.50
2018-08-06T17:43:52.074Z,35.90
2018-08-06T17:46:20.599Z,35.40
2018-08-06T17:48:49.437Z,35.00
2018-08-06T17:51:18.010Z,34.60
2018-08-06T17:53:46.610Z,34.20
2018-08-06T17:56:15.099Z,33.90
2018-08-06T18:01:12.715Z,33.30
2018-08-06T18:03:41.379Z,33.00
2018-08-06T18:06:09.876Z,32.70
2018-08-06T18:08:38.514Z,32.50
2018-08-06T18:11:07.401Z,32.20
2018-08-06T18:13:35.955Z,31.90
2018-08-06T18:16:04.506Z,31.70
2018-08-06T18:18:33.083Z,31.50
2018-08-06T18:21:01.610Z,31.20
2018-08-06T18:23:30.218Z,31.00
2018-08-06T18:25:58.745Z,30.80
2018-08-06T18:28:27.427Z,30.60
2018-08-06T18:30:55.906Z,30.40
2018-08-06T18:33:24.475Z,30.30
2018-08-06T18:35:52.953Z,30.10
2018-08-06T18:38:21.488Z,29.90
2018-08-06T18:40:49.956Z,29.70
2018-08-06T18:43:18.659Z,29.60
2018-08-06T18:45:47.108Z,29.40
2018-08-06T18:48:15.646Z,29.20
2018-08-06T18:50:44.160Z,29.00
2018-08-06T18:53:12.835Z,28.80
2018-08-06T18:55:41.394Z,28.60
2018-08-06T18:58:09.883Z,28.40
2018-08-06T19:00:38.518Z,28.20
2018-08-06T19:03:07.429Z,28.00
2018-08-06T19:05:35.959Z,27.90
2018-08-06T19:08:04.499Z,27.60
2018-08-06T19:10:32.981Z,27.50
2018-08-06T19:13:06.872Z,27.30
2018-08-06T19:15:35.371Z,27.20
2018-08-06T19:18:09.186Z,27.00
2018-08-06T19:20:37.820Z,26.90
2018-08-06T19:23:06.476Z,26.80
2018-08-06T19:25:34.968Z,26.70
2018-08-06T19:28:09.899Z,26.70
2018-08-06T19:30:43.778Z,26.50
2018-08-06T19:33:12.373Z,26.40
2018-08-06T19:35:40.902Z,26.30
2018-08-06T19:38:10.207Z,26.10
2018-08-06T19:40:38.812Z,26.00
2018-08-06T19:43:16.178Z,25.80
2018-08-06T19:45:44.770Z,25.70
2018-08-06T19:48:13.289Z,25.50
2018-08-06T19:50:43.993Z,25.30
2018-08-06T19:53:12.741Z,25.30
2018-08-06T19:55:46.711Z,25.20
2018-08-06T19:58:15.225Z,25.00
2018-08-06T20:00:43.801Z,24.90
2018-08-06T20:03:12.443Z,24.80
2018-08-06T20:05:40.999Z,24.70
2018-08-06T20:08:09.565Z,24.60
2018-08-06T20:10:38.093Z,24.50
2018-08-06T20:13:06.657Z,24.50
2018-08-06T20:15:35.194Z,24.40
2018-08-06T20:18:03.726Z,24.20
2018-08-06T20:20:32.242Z,24.10
2018-08-06T20:23:00.796Z,24.00
2018-08-06T20:25:29.557Z,24.00
2018-08-06T20:27:59.091Z,23.90
2018-08-06T20:30:27.652Z,23.80
2018-08-06T20:32:56.265Z,23.70
2018-08-06T20:35:26.657Z,23.70
2018-08-06T20:37:55.550Z,23.60
2018-08-06T20:40:26.368Z,23.50
2018-08-06T20:42:56.850Z,23.50
2018-08-06T20:45:26.320Z,23.40
2018-08-06T20:47:56.956Z,23.30
2018-08-06T20:50:27.630Z,23.20
2018-08-06T20:52:56.779Z,23.20
2018-08-06T20:55:28.117Z,23.10
2018-08-06T20:57:56.778Z,23.10
2018-08-06T21:00:26.199Z,23.00
2018-08-06T21:02:55.014Z,23.00
2018-08-06T21:05:25.285Z,22.90
2018-08-06T21:07:54.156Z,22.90
2018-08-06T21:10:24.074Z,22.80
2018-08-06T21:12:52.736Z,22.70
2018-08-06T21:15:22.817Z,22.70
2018-08-06T21:17:51.968Z,22.60
2018-08-06T21:20:21.424Z,22.60
2018-08-06T21:22:50.426Z,22.50
2018-08-06T21:25:18.985Z,22.50
2018-08-06T21:27:48.761Z,22.40
2018-08-06T21:30:20.041Z,22.40
2018-08-06T21:32:51.981Z,22.40
2018-08-06T21:37:52.168Z,22.30
2018-08-06T21:40:21.853Z,22.30
2018-08-06T21:42:51.193Z,22.20
2018-08-06T21:45:21.374Z,22.20
2018-08-06T21:47:51.058Z,22.10
2018-08-06T21:50:20.106Z,22.10
2018-08-06T21:52:48.749Z,22.00
2018-08-06T21:55:18.025Z,22.00
2018-08-06T21:57:47.585Z,21.90
2018-08-06T22:00:32.983Z,21.80
2018-08-06T22:03:02.847Z,21.80
2018-08-06T22:05:32.318Z,21.70
2018-08-06T22:08:02.559Z,21.70
2018-08-06T22:10:31.795Z,21.60
2018-08-06T22:13:00.515Z,21.60
2018-08-06T22:15:29.006Z,22.10
2018-08-06T22:20:26.315Z,21.60
2018-08-06T22:22:55.355Z,21.50
2018-08-06T22:25:25.103Z,21.50
2018-08-06T22:27:54.789Z,21.40
2018-08-06T22:30:23.414Z,21.40
2018-08-06T22:32:53.369Z,21.40
2018-08-06T22:35:21.958Z,21.40
2018-08-06T22:37:50.522Z,21.30
2018-08-06T22:40:19.161Z,21.30
2018-08-06T22:42:48.825Z,21.20
2018-08-06T22:45:17.341Z,21.10
2018-08-06T22:47:45.872Z,21.10
